Terminal Aerodrome Forecast
Issued by NWS

Home | Current Version | Previous Version | Graphics & Text | Print | Product List | Glossary On
Versions: 1 2 3 4 5 6 7 8 9 10 11 12 13 14 15 16 17 18 19 20 21 22 23 24 25 26 27 28 29 30 31 32
000
FTUS43 KLOT 261400 AAB
TAFMDW
TAF AMD
KMDW 261433Z 2615/2712 03014G19KT 1SM -SHSN BLSN OVC015
      TEMPO 2615/2618 1/2SM SHSN VV008
     FM261800 01013G18KT 3SM -SHSN BLSN OVC025
     FM262100 36012G18KT 6SM BLSN VCSH SCT020 BKN035
     FM262200 34012KT P6SM SCT035
     FM270200 33007KT P6SM FEW040=

USA.gov is the U.S. government's official web portal to all federal, state and local government web resources and services.